WGA weather

Wagga Wagga City Airport
Wagga Wagga, New South Wales, Australia

Public forecast

Using degrees Celsius for public forecast. Weather courtesy of forecast.io.

METAR (pilot weather report)

Retrieved 2019/03/19 18:00 UTC (51 minutes ago):

YSWG 191800Z AUTO 09003KT 9999 // NCD 20/14 Q1013

TAF (pilot weather forecast)

Forecast is more than 12 hours old.

Retrieved 2018/05/25 18:03 UTC (10 months ago):

TAF YSWG 251649Z 2518/2608 07008KT CAVOK